createdAt,value
2022-12-23T00:01:27.333Z,14.52
2022-12-23T00:03:58.433Z,13.38
2022-12-23T00:06:25.650Z,13.20
2022-12-23T00:08:58.124Z,13.85
2022-12-23T00:11:25.994Z,13.23
2022-12-23T00:14:18.150Z,11.55
2022-12-23T00:16:47.542Z,13.00
2022-12-23T00:19:14.189Z,11.98
2022-12-23T00:21:40.898Z,13.52
2022-12-23T00:24:07.907Z,13.70
2022-12-23T00:26:34.522Z,13.73
2022-12-23T00:29:01.543Z,14.77
2022-12-23T00:31:28.209Z,13.30
2022-12-23T00:33:54.906Z,12.45
2022-12-23T00:36:27.699Z,16.88
2022-12-23T00:39:14.059Z,14.82
2022-12-23T00:41:59.505Z,13.13
2022-12-23T00:44:26.483Z,14.38
2022-12-23T00:46:53.017Z,14.75
2022-12-23T00:49:39.297Z,16.08
2022-12-23T00:52:07.723Z,13.38
2022-12-23T00:54:34.281Z,13.68
2022-12-23T00:57:01.371Z,12.32
2022-12-23T00:59:27.926Z,15.10
2022-12-23T01:02:13.889Z,13.27
2022-12-23T01:04:59.462Z,13.85
2022-12-23T01:07:26.124Z,12.70
2022-12-23T01:09:52.703Z,13.80
2022-12-23T01:12:19.620Z,13.75
2022-12-23T01:14:46.345Z,13.90
2022-12-23T01:17:13.193Z,12.50
2022-12-23T01:19:39.805Z,18.85
2022-12-23T01:22:06.440Z,13.95
2022-12-23T01:24:33.389Z,27.38
2022-12-23T01:27:00.187Z,21.50
2022-12-23T01:29:26.794Z,12.93
2022-12-23T01:31:53.499Z,50.33
2022-12-23T01:34:20.282Z,14.45
2022-12-23T01:39:17.380Z,35.92
2022-12-23T01:42:02.436Z,16.25
2022-12-23T01:45:04.851Z,22.48
2022-12-23T01:47:55.766Z,19.48
2022-12-23T01:50:35.350Z,18.50
2022-12-23T01:53:11.134Z,13.90
2022-12-23T01:56:03.497Z,12.93
2022-12-23T01:58:52.165Z,40.15
2022-12-23T02:01:37.491Z,16.50
2022-12-23T02:04:07.999Z,14.38
2022-12-23T02:06:56.708Z,26.75
2022-12-23T02:09:24.596Z,24.05
2022-12-23T02:12:06.383Z,13.50
2022-12-23T02:15:10.389Z,16.75
2022-12-23T02:17:55.002Z,18.38
2022-12-23T02:20:50.621Z,29.23
2022-12-23T02:23:47.662Z,15.32
2022-12-23T02:26:20.147Z,36.13
2022-12-23T02:29:05.521Z,22.63
2022-12-23T02:31:49.346Z,27.02
2022-12-23T02:34:27.117Z,24.23
2022-12-23T02:37:08.508Z,33.95
2022-12-23T02:39:50.768Z,20.27
2022-12-23T02:42:30.393Z,20.65
2022-12-23T02:45:03.368Z,13.82
2022-12-23T02:47:37.809Z,28.52
2022-12-23T02:50:11.264Z,19.63
2022-12-23T02:52:41.190Z,15.95
2022-12-23T02:55:16.148Z,21.60
2022-12-23T02:57:47.128Z,21.80
2022-12-23T03:02:41.377Z,28.60
2022-12-23T03:05:39.250Z,29.45
2022-12-23T03:08:12.568Z,32.22
2022-12-23T03:10:51.347Z,33.90
2022-12-23T03:13:44.091Z,36.35
2022-12-23T03:16:28.514Z,37.65
2022-12-23T03:19:15.504Z,93.00
2022-12-23T03:21:45.926Z,33.75
2022-12-23T03:24:31.529Z,40.25
2022-12-23T03:27:09.473Z,49.42
2022-12-23T03:29:55.820Z,41.88
2022-12-23T03:32:24.665Z,40.90
2022-12-23T03:34:55.400Z,51.00
2022-12-23T03:37:25.922Z,99.82
2022-12-23T03:39:58.690Z,68.47
2022-12-23T03:42:41.390Z,47.30
2022-12-23T03:48:37.628Z,42.58
2022-12-23T03:51:11.436Z,35.70
2022-12-23T03:53:45.418Z,39.67
2022-12-23T03:56:27.250Z,36.47
2022-12-23T03:59:02.556Z,39.60
2022-12-23T04:01:40.083Z,35.70
2022-12-23T04:04:24.975Z,36.70
2022-12-23T04:06:57.475Z,31.98
2022-12-23T04:09:27.509Z,33.45
2022-12-23T04:11:54.346Z,35.85
2022-12-23T04:14:22.282Z,31.58
2022-12-23T04:16:56.151Z,33.90
2022-12-23T04:19:22.929Z,37.97
2022-12-23T04:21:49.847Z,42.80
2022-12-23T04:24:16.434Z,45.90
2022-12-23T04:26:42.948Z,44.60
2022-12-23T04:29:09.528Z,53.67
2022-12-23T04:31:36.108Z,50.80
2022-12-23T04:34:02.735Z,49.58
2022-12-23T04:36:29.230Z,36.33
2022-12-23T04:38:55.966Z,32.47
2022-12-23T04:41:24.092Z,29.02
2022-12-23T04:43:53.093Z,28.17
2022-12-23T04:46:20.385Z,31.60
2022-12-23T04:48:47.067Z,30.77
2022-12-23T04:51:13.597Z,25.92
2022-12-23T04:53:40.352Z,25.52
2022-12-23T04:56:06.906Z,26.40
2022-12-23T04:58:33.522Z,32.85
2022-12-23T05:01:05.973Z,36.95
2022-12-23T05:03:33.196Z,87.43
2022-12-23T05:06:00.100Z,96.80
2022-12-23T05:08:27.295Z,134.57
2022-12-23T05:10:54.021Z,123.43
2022-12-23T05:13:21.259Z,238.38
2022-12-23T05:15:52.428Z,100.90
2022-12-23T05:18:19.959Z,151.03
2022-12-23T05:20:46.460Z,137.48
2022-12-23T05:23:13.188Z,75.18
2022-12-23T05:25:39.996Z,147.38
2022-12-23T05:28:10.942Z,171.80
2022-12-23T05:30:37.602Z,179.48
2022-12-23T05:33:04.308Z,209.30
2022-12-23T05:35:31.023Z,95.75
2022-12-23T05:37:57.813Z,57.75
2022-12-23T05:40:26.918Z,82.95
2022-12-23T05:42:57.698Z,49.20
2022-12-23T05:45:24.231Z,83.53
2022-12-23T05:47:53.888Z,68.05
2022-12-23T05:50:20.495Z,89.80
2022-12-23T05:52:48.440Z,61.95
2022-12-23T05:55:14.971Z,40.25
2022-12-23T05:57:41.598Z,52.28
2022-12-23T06:00:09.488Z,55.17
2022-12-23T06:02:51.606Z,55.20
2022-12-23T06:05:20.294Z,103.68
2022-12-23T06:07:46.834Z,110.20
2022-12-23T06:10:13.430Z,153.50
2022-12-23T06:12:40.043Z,193.82
2022-12-23T06:15:07.399Z,210.18
2022-12-23T06:17:33.909Z,167.93
2022-12-23T06:20:00.597Z,235.57
2022-12-23T06:22:27.113Z,178.60
2022-12-23T06:24:54.073Z,202.07
2022-12-23T06:27:20.848Z,256.63
2022-12-23T06:29:48.138Z,188.07
2022-12-23T06:32:14.902Z,160.60
2022-12-23T06:34:41.567Z,212.45
2022-12-23T06:37:08.437Z,165.68
2022-12-23T06:39:34.998Z,134.30
2022-12-23T06:42:01.499Z,92.22
2022-12-23T06:44:28.137Z,120.75
2022-12-23T06:46:54.669Z,130.60
2022-12-23T06:49:21.243Z,125.25
2022-12-23T06:51:47.825Z,190.98
2022-12-23T06:54:14.436Z,286.38
2022-12-23T06:56:40.940Z,220.32
2022-12-23T06:59:07.626Z,237.57
2022-12-23T07:01:34.388Z,189.02
2022-12-23T07:04:01.929Z,166.32
2022-12-23T07:06:28.763Z,309.13
2022-12-23T07:08:55.337Z,147.82
2022-12-23T07:11:21.871Z,162.60
2022-12-23T07:13:48.926Z,171.25
2022-12-23T07:16:15.628Z,125.68
2022-12-23T07:18:42.299Z,146.45
2022-12-23T07:21:19.765Z,111.32
2022-12-23T07:23:48.117Z,86.03
2022-12-23T07:26:14.796Z,91.65
2022-12-23T07:28:43.963Z,86.05
2022-12-23T07:31:10.522Z,69.28
2022-12-23T07:33:37.138Z,80.93
2022-12-23T07:36:03.877Z,87.50
2022-12-23T07:38:30.574Z,112.82
2022-12-23T07:40:57.148Z,103.40
2022-12-23T07:43:23.880Z,83.65
2022-12-23T07:45:57.461Z,100.53
2022-12-23T07:48:26.459Z,97.10
2022-12-23T07:50:53.017Z,99.43
2022-12-23T07:53:19.609Z,90.78
2022-12-23T07:55:48.094Z,90.60
2022-12-23T07:58:18.272Z,94.60
2022-12-23T08:00:44.991Z,71.30
2022-12-23T08:03:12.487Z,67.00
2022-12-23T08:05:39.108Z,65.32
2022-12-23T08:08:05.710Z,96.20
2022-12-23T08:10:32.391Z,84.60
2022-12-23T08:13:02.411Z,103.68
2022-12-23T08:15:29.023Z,128.80
2022-12-23T08:17:56.429Z,149.48
2022-12-23T08:20:22.982Z,158.15
2022-12-23T08:22:49.511Z,165.02
2022-12-23T08:25:16.378Z,155.98
2022-12-23T08:27:42.853Z,104.13
2022-12-23T08:30:10.003Z,74.30
2022-12-23T08:32:36.543Z,79.60
2022-12-23T08:35:03.185Z,79.97
2022-12-23T08:37:29.755Z,69.38
2022-12-23T08:39:56.343Z,73.45
2022-12-23T08:42:22.960Z,85.00
2022-12-23T08:44:49.581Z,130.75
2022-12-23T08:47:16.125Z,91.22
2022-12-23T08:49:42.654Z,216.10
2022-12-23T08:52:09.204Z,220.07
2022-12-23T08:54:35.798Z,138.70
2022-12-23T08:57:02.321Z,135.27
2022-12-23T08:59:31.745Z,128.15
2022-12-23T09:01:59.919Z,137.30
2022-12-23T09:04:26.598Z,166.43
2022-12-23T09:06:53.227Z,133.30
2022-12-23T09:09:19.797Z,131.52
2022-12-23T09:11:46.311Z,108.95
2022-12-23T09:14:14.023Z,79.20
2022-12-23T09:16:40.685Z,84.05
2022-12-23T09:19:07.952Z,117.82
2022-12-23T09:21:35.864Z,125.30
2022-12-23T09:24:02.567Z,129.50
2022-12-23T09:26:31.464Z,143.07
2022-12-23T09:28:58.710Z,134.98
2022-12-23T09:31:30.824Z,125.53
2022-12-23T09:34:02.685Z,108.38
2022-12-23T09:36:29.938Z,98.68
2022-12-23T09:38:58.037Z,84.85
2022-12-23T09:41:40.456Z,88.70
2022-12-23T09:46:53.969Z,82.70
2022-12-23T09:49:23.799Z,92.50
2022-12-23T09:51:54.060Z,94.57
2022-12-23T09:54:31.747Z,94.38
2022-12-23T09:57:03.698Z,118.30
2022-12-23T09:59:58.167Z,119.05
2022-12-23T10:02:30.602Z,129.50
2022-12-23T10:05:20.934Z,122.25
2022-12-23T10:07:52.447Z,98.18
2022-12-23T10:12:47.107Z,82.75
2022-12-23T10:15:22.213Z,76.25
2022-12-23T10:17:53.044Z,67.00
2022-12-23T10:20:29.887Z,112.95
2022-12-23T10:22:58.872Z,119.22
2022-12-23T10:25:46.497Z,84.97
2022-12-23T10:28:13.069Z,82.00
2022-12-23T10:31:10.642Z,85.18
2022-12-23T10:34:03.723Z,84.68
2022-12-23T10:36:44.325Z,81.15
2022-12-23T10:39:19.723Z,79.65
2022-12-23T10:41:58.223Z,84.88
2022-12-23T10:44:44.393Z,107.22
2022-12-23T10:47:16.800Z,109.90
2022-12-23T10:50:37.617Z,105.75
2022-12-23T10:53:10.465Z,102.30
2022-12-23T10:55:38.611Z,83.63
2022-12-23T10:58:16.210Z,69.40
2022-12-23T11:00:48.139Z,55.83
2022-12-23T11:03:23.955Z,52.63
2022-12-23T11:05:52.680Z,48.45
2022-12-23T11:08:22.088Z,43.08
2022-12-23T11:10:49.166Z,36.53
2022-12-23T11:13:34.604Z,32.42
2022-12-23T11:16:26.604Z,26.15
2022-12-23T11:19:06.124Z,23.38
2022-12-23T11:21:33.502Z,18.25
2022-12-23T11:24:09.410Z,17.95
2022-12-23T11:26:36.450Z,14.88
2022-12-23T11:29:09.257Z,13.55
2022-12-23T11:31:36.780Z,14.32
2022-12-23T11:34:18.105Z,13.55
2022-12-23T11:36:54.795Z,15.07
2022-12-23T11:39:27.824Z,12.52
2022-12-23T11:42:03.426Z,11.57
2022-12-23T11:44:32.165Z,10.68
2022-12-23T11:47:18.877Z,9.40
2022-12-23T11:49:55.122Z,10.50
2022-12-23T11:52:28.807Z,8.70
2022-12-23T11:54:57.881Z,8.10
2022-12-23T11:57:31.647Z,9.73
2022-12-23T12:00:02.374Z,9.80
2022-12-23T12:02:37.179Z,9.80
2022-12-23T12:05:22.920Z,14.02
2022-12-23T12:07:53.243Z,11.60
2022-12-23T12:10:28.063Z,33.60
2022-12-23T12:13:02.547Z,41.10
2022-12-23T12:15:48.282Z,42.13
2022-12-23T12:18:19.475Z,42.40
2022-12-23T12:20:54.572Z,36.97
2022-12-23T12:23:28.080Z,35.38
2022-12-23T12:26:00.106Z,54.78
2022-12-23T12:28:38.709Z,40.42
2022-12-23T12:31:17.416Z,36.65
2022-12-23T12:33:50.102Z,35.95
2022-12-23T12:36:41.299Z,36.15
2022-12-23T12:39:18.213Z,36.22
2022-12-23T12:42:00.211Z,37.28
2022-12-23T12:44:47.933Z,44.60
2022-12-23T12:47:45.171Z,54.83
2022-12-23T12:50:16.331Z,57.25
2022-12-23T12:52:43.425Z,42.60
2022-12-23T12:55:27.870Z,40.58
2022-12-23T12:57:54.543Z,38.20
2022-12-23T13:00:23.300Z,32.78
2022-12-23T13:03:14.746Z,32.97
2022-12-23T13:08:05.966Z,78.00
2022-12-23T13:10:37.692Z,40.83
2022-12-23T13:13:41.636Z,77.25
2022-12-23T13:16:14.119Z,84.53
2022-12-23T13:18:55.363Z,84.10
2022-12-23T13:21:52.491Z,74.40
2022-12-23T13:24:41.057Z,36.95
2022-12-23T13:27:20.386Z,26.25
2022-12-23T13:30:13.051Z,28.88
2022-12-23T13:33:06.637Z,21.45
2022-12-23T13:35:38.984Z,21.83
2022-12-23T13:38:14.512Z,21.27
2022-12-23T13:40:59.167Z,41.03
2022-12-23T13:43:36.008Z,29.50
2022-12-23T13:46:12.415Z,30.70
2022-12-23T13:48:47.959Z,28.98
2022-12-23T13:51:15.101Z,33.50
2022-12-23T13:54:05.362Z,37.63
2022-12-23T13:57:09.383Z,36.35
2022-12-23T13:59:41.796Z,39.92
2022-12-23T14:04:59.376Z,42.58
2022-12-23T14:07:28.061Z,25.15
2022-12-23T14:09:58.345Z,26.65
2022-12-23T14:12:30.998Z,12.48
2022-12-23T14:15:12.297Z,15.07
2022-12-23T14:18:14.139Z,18.65
2022-12-23T14:21:08.454Z,16.33
2022-12-23T14:23:59.597Z,24.75
2022-12-23T14:26:55.846Z,22.50
2022-12-23T14:30:05.283Z,25.80
2022-12-23T14:32:47.627Z,20.52
2022-12-23T14:35:35.465Z,24.92
2022-12-23T14:38:15.674Z,32.40
2022-12-23T14:40:42.228Z,80.30
2022-12-23T14:43:27.719Z,39.42
2022-12-23T14:45:59.152Z,113.60
2022-12-23T14:48:47.828Z,38.38
2022-12-23T14:51:14.403Z,33.85
2022-12-23T14:53:59.042Z,52.55
2022-12-23T14:56:43.141Z,33.63
2022-12-23T14:59:12.458Z,30.90
2022-12-23T15:01:52.878Z,31.08
2022-12-23T15:04:27.040Z,30.20
2022-12-23T15:06:58.853Z,32.42
2022-12-23T15:09:38.505Z,30.65
2022-12-23T15:12:16.690Z,40.22
2022-12-23T15:14:50.149Z,36.17
2022-12-23T15:17:28.845Z,35.88
2022-12-23T15:20:11.924Z,24.05
2022-12-23T15:22:40.564Z,29.95
2022-12-23T15:25:22.091Z,12.85
2022-12-23T15:27:49.576Z,17.13
2022-12-23T15:30:17.163Z,15.30
2022-12-23T15:32:46.857Z,14.18
2022-12-23T15:35:19.445Z,20.05
2022-12-23T15:37:49.677Z,17.70
2022-12-23T15:40:27.024Z,17.38
2022-12-23T15:42:54.177Z,23.63
2022-12-23T15:45:23.532Z,23.25
2022-12-23T15:47:50.898Z,61.95
2022-12-23T15:50:18.944Z,50.50
2022-12-23T15:52:48.661Z,48.67
2022-12-23T15:55:20.223Z,18.20
2022-12-23T15:57:50.680Z,21.45
2022-12-23T16:00:25.545Z,25.70
2022-12-23T16:03:03.413Z,64.93
2022-12-23T16:05:35.297Z,41.35
2022-12-23T16:08:28.659Z,46.85
2022-12-23T16:10:56.580Z,45.28
2022-12-23T16:13:23.738Z,47.42
2022-12-23T16:15:50.387Z,48.80
2022-12-23T16:18:28.428Z,46.58
2022-12-23T16:20:59.352Z,45.38
2022-12-23T16:23:30.804Z,35.33
2022-12-23T16:26:00.117Z,30.50
2022-12-23T16:28:31.108Z,22.48
2022-12-23T16:30:58.548Z,22.58
2022-12-23T16:33:37.574Z,16.98
2022-12-23T16:36:27.770Z,20.50
2022-12-23T16:39:06.697Z,29.10
2022-12-23T16:41:34.611Z,27.00
2022-12-23T16:44:01.840Z,21.65
2022-12-23T16:46:34.012Z,23.05
2022-12-23T16:51:33.993Z,15.75
2022-12-23T16:54:01.120Z,15.13
2022-12-23T16:56:31.754Z,13.18
2022-12-23T16:58:58.500Z,18.73
2022-12-23T17:01:29.728Z,15.45
2022-12-23T17:03:56.523Z,19.50
2022-12-23T17:06:23.936Z,39.55
2022-12-23T17:08:51.282Z,37.00
2022-12-23T17:11:22.869Z,45.63
2022-12-23T17:13:49.762Z,36.17
2022-12-23T17:16:21.837Z,41.63
2022-12-23T17:18:49.579Z,32.38
2022-12-23T17:21:19.403Z,34.05
2022-12-23T17:23:46.184Z,31.45
2022-12-23T17:26:12.779Z,26.45
2022-12-23T17:28:39.426Z,24.98
2022-12-23T17:31:13.728Z,22.95
2022-12-23T17:33:41.819Z,20.48
2022-12-23T17:36:13.608Z,23.90
2022-12-23T17:38:40.278Z,27.98
2022-12-23T17:41:06.953Z,39.03
2022-12-23T17:43:33.551Z,37.47
2022-12-23T17:46:00.156Z,38.72
2022-12-23T17:48:31.621Z,32.78
2022-12-23T17:50:58.827Z,39.47
2022-12-23T17:53:25.348Z,135.57
2022-12-23T17:55:51.949Z,45.85
2022-12-23T17:58:19.771Z,39.65
2022-12-23T18:00:46.613Z,45.17
2022-12-23T18:03:22.826Z,50.70
2022-12-23T18:05:54.313Z,47.53
2022-12-23T18:08:25.873Z,38.92
2022-12-23T18:10:55.490Z,36.33
2022-12-23T18:13:22.287Z,39.08
2022-12-23T18:15:50.049Z,40.95
2022-12-23T18:18:27.470Z,39.40
2022-12-23T18:20:58.421Z,237.35
2022-12-23T18:23:31.309Z,69.28
2022-12-23T18:25:58.593Z,51.63
2022-12-23T18:28:25.663Z,54.40
2022-12-23T18:30:54.749Z,60.80
2022-12-23T18:33:22.138Z,55.67
2022-12-23T18:35:50.141Z,61.70
2022-12-23T18:38:17.785Z,62.83
2022-12-23T18:40:45.235Z,60.15
2022-12-23T18:43:23.596Z,98.57
2022-12-23T18:45:54.369Z,77.18
2022-12-23T18:48:21.746Z,53.33
2022-12-23T18:50:48.492Z,46.67
2022-12-23T18:53:24.626Z,47.80
2022-12-23T18:55:52.265Z,46.75
2022-12-23T18:58:19.207Z,43.92
2022-12-23T19:00:46.579Z,43.88
2022-12-23T19:03:26.924Z,42.58
2022-12-23T19:05:54.948Z,42.78
2022-12-23T19:08:26.836Z,40.90
2022-12-23T19:10:57.484Z,46.75
2022-12-23T19:13:24.206Z,42.28
2022-12-23T19:15:50.884Z,40.72
2022-12-23T19:18:20.037Z,39.65
2022-12-23T19:20:48.080Z,42.70
2022-12-23T19:23:15.785Z,42.60
2022-12-23T19:25:49.278Z,40.00
2022-12-23T19:28:21.907Z,41.67
2022-12-23T19:30:51.577Z,62.78
2022-12-23T19:33:18.244Z,60.28
2022-12-23T19:35:45.054Z,71.45
2022-12-23T19:38:12.326Z,68.70
2022-12-23T19:40:39.915Z,72.95
2022-12-23T19:43:06.682Z,77.45
2022-12-23T19:45:33.858Z,135.65
2022-12-23T19:48:00.598Z,318.75
2022-12-23T19:50:27.934Z,315.40
2022-12-23T19:52:56.191Z,191.13
2022-12-23T19:55:23.102Z,176.07
2022-12-23T19:57:49.735Z,193.38
2022-12-23T20:00:16.786Z,132.15
2022-12-23T20:02:46.645Z,166.65
2022-12-23T20:05:13.343Z,139.40
2022-12-23T20:07:40.397Z,135.27
2022-12-23T20:10:08.648Z,165.88
2022-12-23T20:12:35.278Z,135.73
2022-12-23T20:15:01.923Z,109.28
2022-12-23T20:17:28.460Z,96.60
2022-12-23T20:19:55.070Z,114.47
2022-12-23T20:22:21.809Z,159.05
2022-12-23T20:24:48.571Z,257.80
2022-12-23T20:27:16.284Z,281.95
2022-12-23T20:29:43.679Z,293.40
2022-12-23T20:32:10.516Z,185.85
2022-12-23T20:34:39.923Z,137.43
2022-12-23T20:37:07.762Z,219.27
2022-12-23T20:39:34.679Z,160.18
2022-12-23T20:42:01.654Z,145.63
2022-12-23T20:44:37.033Z,191.38
2022-12-23T20:47:07.045Z,282.55
2022-12-23T20:49:33.736Z,116.47
2022-12-23T20:52:01.210Z,154.93
2022-12-23T20:54:33.348Z,187.13
2022-12-23T20:57:02.122Z,319.80
2022-12-23T20:59:28.801Z,101.28
2022-12-23T21:01:55.640Z,103.28
2022-12-23T21:04:22.753Z,78.75
2022-12-23T21:06:50.804Z,110.72
2022-12-23T21:09:17.678Z,288.40
2022-12-23T21:11:46.790Z,265.90
2022-12-23T21:14:14.409Z,111.20
2022-12-23T21:16:41.901Z,206.50
2022-12-23T21:21:35.309Z,179.73
2022-12-23T21:24:04.270Z,104.68
2022-12-23T21:26:33.694Z,102.75
2022-12-23T21:29:01.878Z,240.75
2022-12-23T21:31:30.947Z,77.15
2022-12-23T21:33:58.237Z,84.82
2022-12-23T21:36:31.134Z,78.18
2022-12-23T21:38:59.232Z,81.75
2022-12-23T21:41:31.387Z,219.93
2022-12-23T21:43:59.838Z,110.15
2022-12-23T21:46:28.372Z,94.70
2022-12-23T21:48:56.668Z,125.88
2022-12-23T21:51:25.625Z,94.65
2022-12-23T21:53:58.806Z,90.13
2022-12-23T21:56:27.905Z,136.02
2022-12-23T21:58:56.436Z,210.98
2022-12-23T22:01:23.859Z,305.70
2022-12-23T22:03:51.696Z,165.88
2022-12-23T22:06:26.992Z,283.80
2022-12-23T22:08:54.540Z,116.65
2022-12-23T22:11:33.257Z,84.10
2022-12-23T22:14:01.392Z,76.30
2022-12-23T22:16:30.068Z,75.97
2022-12-23T22:18:58.106Z,69.38
2022-12-23T22:21:25.923Z,83.50
2022-12-23T22:23:54.252Z,89.32
2022-12-23T22:26:25.848Z,100.30
2022-12-23T22:28:58.004Z,94.78
2022-12-23T22:31:27.786Z,76.43
2022-12-23T22:33:54.387Z,62.55
2022-12-23T22:38:56.226Z,83.60
2022-12-23T22:41:24.388Z,96.60
2022-12-23T22:43:51.344Z,106.22
2022-12-23T22:46:18.483Z,97.57
2022-12-23T22:48:45.708Z,123.60
2022-12-23T22:51:18.514Z,133.93
2022-12-23T22:56:00.293Z,143.10
2022-12-23T22:58:28.811Z,157.20
2022-12-23T23:00:55.730Z,141.60
2022-12-23T23:03:22.756Z,127.57
2022-12-23T23:06:04.698Z,117.50
2022-12-23T23:08:34.531Z,123.80
2022-12-23T23:11:03.701Z,130.82
2022-12-23T23:13:33.747Z,146.50
2022-12-23T23:16:01.511Z,141.68
2022-12-23T23:18:28.948Z,130.35
2022-12-23T23:20:55.592Z,138.00
2022-12-23T23:23:22.416Z,135.18
2022-12-23T23:25:51.856Z,85.43
2022-12-23T23:28:18.770Z,60.38
2022-12-23T23:30:45.400Z,53.35
2022-12-23T23:33:12.286Z,54.25
2022-12-23T23:35:38.926Z,59.92
2022-12-23T23:38:05.700Z,51.20
2022-12-23T23:40:32.404Z,46.58
2022-12-23T23:42:59.023Z,54.70
2022-12-23T23:45:27.352Z,58.70
2022-12-23T23:47:55.270Z,60.70
2022-12-23T23:50:22.012Z,46.53
2022-12-23T23:52:51.259Z,55.22
2022-12-23T23:55:17.901Z,56.13
2022-12-23T23:57:44.476Z,56.85
